sensor_id;sensor_type;location;lat;lon;timestamp;temperature;humidity
12268;DHT22;6196;48.398;11.736;2023-07-13T00:01:55;18.90;99.90
12268;DHT22;6196;48.398;11.736;2023-07-13T00:04:23;18.90;99.90
12268;DHT22;6196;48.398;11.736;2023-07-13T00:06:52;19.00;99.90
12268;DHT22;6196;48.398;11.736;2023-07-13T00:09:20;19.00;99.90
12268;DHT22;6196;48.398;11.736;2023-07-13T00:11:55;18.90;99.90
12268;DHT22;6196;48.398;11.736;2023-07-13T00:14:25;19.00;99.90
12268;DHT22;6196;48.398;11.736;2023-07-13T00:16:53;19.00;99.90
12268;DHT22;6196;48.398;11.736;2023-07-13T00:19:21;18.90;99.90
12268;DHT22;6196;48.398;11.736;2023-07-13T00:21:48;19.00;99.90
12268;DHT22;6196;48.398;11.736;2023-07-13T00:24:17;19.00;99.90
12268;DHT22;6196;48.398;11.736;2023-07-13T00:26:50;18.90;99.90
12268;DHT22;6196;48.398;11.736;2023-07-13T00:29:17;18.90;99.90
12268;DHT22;6196;48.398;11.736;2023-07-13T00:31:44;18.90;99.90
12268;DHT22;6196;48.398;11.736;2023-07-13T00:34:11;19.00;99.90
12268;DHT22;6196;48.398;11.736;2023-07-13T00:36:38;19.00;99.90
12268;DHT22;6196;48.398;11.736;2023-07-13T00:39:05;18.90;99.90
12268;DHT22;6196;48.398;11.736;2023-07-13T00:41:32;18.90;99.90
12268;DHT22;6196;48.398;11.736;2023-07-13T00:43:59;18.90;99.90
12268;DHT22;6196;48.398;11.736;2023-07-13T00:46:29;18.90;99.90
12268;DHT22;6196;48.398;11.736;2023-07-13T00:49:01;19.00;99.90
12268;DHT22;6196;48.398;11.736;2023-07-13T00:51:40;18.90;99.90
12268;DHT22;6196;48.398;11.736;2023-07-13T00:54:14;18.90;99.90
12268;DHT22;6196;48.398;11.736;2023-07-13T00:56:45;18.90;99.90
12268;DHT22;6196;48.398;11.736;2023-07-13T00:59:15;18.90;99.90
12268;DHT22;6196;48.398;11.736;2023-07-13T01:01:43;18.90;99.90
12268;DHT22;6196;48.398;11.736;2023-07-13T01:04:10;19.00;99.90
12268;DHT22;6196;48.398;11.736;2023-07-13T01:06:38;18.90;99.90
12268;DHT22;6196;48.398;11.736;2023-07-13T01:09:08;19.00;99.90
12268;DHT22;6196;48.398;11.736;2023-07-13T01:11:36;19.00;99.90
12268;DHT22;6196;48.398;11.736;2023-07-13T01:14:04;19.00;99.90
12268;DHT22;6196;48.398;11.736;2023-07-13T01:16:33;19.00;99.90
12268;DHT22;6196;48.398;11.736;2023-07-13T01:19:03;19.10;99.90
12268;DHT22;6196;48.398;11.736;2023-07-13T01:21:38;19.00;99.90
12268;DHT22;6196;48.398;11.736;2023-07-13T01:24:09;19.00;99.90
12268;DHT22;6196;48.398;11.736;2023-07-13T01:26:36;19.00;99.90
12268;DHT22;6196;48.398;11.736;2023-07-13T01:29:03;19.00;99.90
12268;DHT22;6196;48.398;11.736;2023-07-13T01:31:30;19.00;99.90
12268;DHT22;6196;48.398;11.736;2023-07-13T01:33:57;19.10;99.90
12268;DHT22;6196;48.398;11.736;2023-07-13T01:36:24;19.00;99.90
12268;DHT22;6196;48.398;11.736;2023-07-13T01:38:51;19.10;99.90
12268;DHT22;6196;48.398;11.736;2023-07-13T01:41:18;19.00;99.90
12268;DHT22;6196;48.398;11.736;2023-07-13T01:43:45;18.90;99.90
12268;DHT22;6196;48.398;11.736;2023-07-13T01:46:12;18.90;99.90
12268;DHT22;6196;48.398;11.736;2023-07-13T01:48:49;18.90;99.90
12268;DHT22;6196;48.398;11.736;2023-07-13T01:51:17;18.90;99.90
12268;DHT22;6196;48.398;11.736;2023-07-13T01:53:47;19.00;99.90
12268;DHT22;6196;48.398;11.736;2023-07-13T01:56:14;19.00;99.90
12268;DHT22;6196;48.398;11.736;2023-07-13T01:58:41;19.00;99.90
12268;DHT22;6196;48.398;11.736;2023-07-13T02:01:07;19.00;99.90
12268;DHT22;6196;48.398;11.736;2023-07-13T02:03:35;19.00;99.90
12268;DHT22;6196;48.398;11.736;2023-07-13T02:06:02;19.00;99.90
12268;DHT22;6196;48.398;11.736;2023-07-13T02:08:30;19.00;99.90
12268;DHT22;6196;48.398;11.736;2023-07-13T02:10:58;18.90;99.90
12268;DHT22;6196;48.398;11.736;2023-07-13T02:13:25;18.90;99.90
12268;DHT22;6196;48.398;11.736;2023-07-13T02:15:52;18.80;99.90
12268;DHT22;6196;48.398;11.736;2023-07-13T02:18:19;18.70;99.90
12268;DHT22;6196;48.398;11.736;2023-07-13T02:20:46;18.80;99.90
12268;DHT22;6196;48.398;11.736;2023-07-13T02:23:13;18.80;99.90
12268;DHT22;6196;48.398;11.736;2023-07-13T02:25:40;18.80;99.90
12268;DHT22;6196;48.398;11.736;2023-07-13T02:28:07;18.70;99.90
12268;DHT22;6196;48.398;11.736;2023-07-13T02:30:35;18.80;99.90
12268;DHT22;6196;48.398;11.736;2023-07-13T02:33:02;18.80;99.90
12268;DHT22;6196;48.398;11.736;2023-07-13T02:35:29;18.80;99.90
12268;DHT22;6196;48.398;11.736;2023-07-13T02:37:56;18.80;99.90
12268;DHT22;6196;48.398;11.736;2023-07-13T02:40:23;18.80;99.90
12268;DHT22;6196;48.398;11.736;2023-07-13T02:42:50;18.70;99.90
12268;DHT22;6196;48.398;11.736;2023-07-13T02:45:17;18.80;99.90
12268;DHT22;6196;48.398;11.736;2023-07-13T02:47:44;18.70;99.90
12268;DHT22;6196;48.398;11.736;2023-07-13T02:50:11;18.80;99.90
12268;DHT22;6196;48.398;11.736;2023-07-13T02:52:38;18.80;99.90
12268;DHT22;6196;48.398;11.736;2023-07-13T02:55:05;18.70;99.90
12268;DHT22;6196;48.398;11.736;2023-07-13T02:57:32;18.70;99.90
12268;DHT22;6196;48.398;11.736;2023-07-13T03:00:01;18.70;99.90
12268;DHT22;6196;48.398;11.736;2023-07-13T03:02:32;18.80;99.90
12268;DHT22;6196;48.398;11.736;2023-07-13T03:05:00;18.70;99.90
12268;DHT22;6196;48.398;11.736;2023-07-13T03:07:27;18.80;99.90
12268;DHT22;6196;48.398;11.736;2023-07-13T03:09:57;18.80;99.90
12268;DHT22;6196;48.398;11.736;2023-07-13T03:12:24;18.80;99.90
12268;DHT22;6196;48.398;11.736;2023-07-13T03:14:52;18.80;99.90
12268;DHT22;6196;48.398;11.736;2023-07-13T03:17:19;18.80;99.90
12268;DHT22;6196;48.398;11.736;2023-07-13T03:19:46;18.90;99.90
12268;DHT22;6196;48.398;11.736;2023-07-13T03:22:19;18.80;99.90
12268;DHT22;6196;48.398;11.736;2023-07-13T03:24:47;18.90;99.90
12268;DHT22;6196;48.398;11.736;2023-07-13T03:27:16;18.90;99.90
12268;DHT22;6196;48.398;11.736;2023-07-13T03:29:44;18.80;99.90
12268;DHT22;6196;48.398;11.736;2023-07-13T03:32:11;18.80;99.90
12268;DHT22;6196;48.398;11.736;2023-07-13T03:34:37;18.80;99.90
12268;DHT22;6196;48.398;11.736;2023-07-13T03:37:05;18.80;99.90
12268;DHT22;6196;48.398;11.736;2023-07-13T03:39:32;18.80;99.90
12268;DHT22;6196;48.398;11.736;2023-07-13T03:41:59;18.90;99.90
12268;DHT22;6196;48.398;11.736;2023-07-13T03:44:26;18.90;99.90
12268;DHT22;6196;48.398;11.736;2023-07-13T03:46:53;18.90;99.90
12268;DHT22;6196;48.398;11.736;2023-07-13T03:49:20;18.90;99.90
12268;DHT22;6196;48.398;11.736;2023-07-13T03:51:47;18.90;99.90
12268;DHT22;6196;48.398;11.736;2023-07-13T03:54:18;18.90;99.90
12268;DHT22;6196;48.398;11.736;2023-07-13T03:56:45;18.90;99.90
12268;DHT22;6196;48.398;11.736;2023-07-13T03:59:12;19.00;99.90
12268;DHT22;6196;48.398;11.736;2023-07-13T04:01:39;18.90;99.90
12268;DHT22;6196;48.398;11.736;2023-07-13T04:04:06;18.90;99.90
12268;DHT22;6196;48.398;11.736;2023-07-13T04:06:34;18.90;99.90
12268;DHT22;6196;48.398;11.736;2023-07-13T04:09:02;18.90;99.90
12268;DHT22;6196;48.398;11.736;2023-07-13T04:11:33;18.80;99.90
12268;DHT22;6196;48.398;11.736;2023-07-13T04:14:00;18.80;99.90
12268;DHT22;6196;48.398;11.736;2023-07-13T04:16:27;18.80;99.90
12268;DHT22;6196;48.398;11.736;2023-07-13T04:18:55;18.80;99.90
12268;DHT22;6196;48.398;11.736;2023-07-13T04:21:28;18.80;99.90
12268;DHT22;6196;48.398;11.736;2023-07-13T04:23:57;18.80;99.90
12268;DHT22;6196;48.398;11.736;2023-07-13T04:26:24;18.80;99.90
12268;DHT22;6196;48.398;11.736;2023-07-13T04:28:51;18.90;99.90
12268;DHT22;6196;48.398;11.736;2023-07-13T04:31:19;18.90;99.90
12268;DHT22;6196;48.398;11.736;2023-07-13T04:33:47;18.80;99.90
12268;DHT22;6196;48.398;11.736;2023-07-13T04:36:15;18.80;99.90
12268;DHT22;6196;48.398;11.736;2023-07-13T04:38:44;18.80;99.90
12268;DHT22;6196;48.398;11.736;2023-07-13T04:41:12;18.80;99.90
12268;DHT22;6196;48.398;11.736;2023-07-13T04:43:41;18.80;99.90
12268;DHT22;6196;48.398;11.736;2023-07-13T04:46:10;18.90;99.90
12268;DHT22;6196;48.398;11.736;2023-07-13T04:48:39;18.80;99.90
12268;DHT22;6196;48.398;11.736;2023-07-13T04:51:07;18.90;99.90
12268;DHT22;6196;48.398;11.736;2023-07-13T04:53:34;18.90;99.90
12268;DHT22;6196;48.398;11.736;2023-07-13T04:56:03;18.80;99.90
12268;DHT22;6196;48.398;11.736;2023-07-13T04:58:31;18.80;99.90
12268;DHT22;6196;48.398;11.736;2023-07-13T05:01:03;18.90;99.90
12268;DHT22;6196;48.398;11.736;2023-07-13T05:03:31;18.80;99.90
12268;DHT22;6196;48.398;11.736;2023-07-13T05:06:01;18.80;99.90
12268;DHT22;6196;48.398;11.736;2023-07-13T05:08:30;18.80;99.90
12268;DHT22;6196;48.398;11.736;2023-07-13T05:10:59;18.90;99.90
12268;DHT22;6196;48.398;11.736;2023-07-13T05:13:27;18.90;99.90
12268;DHT22;6196;48.398;11.736;2023-07-13T05:16:01;19.00;99.90
12268;DHT22;6196;48.398;11.736;2023-07-13T05:18:30;19.00;99.90
12268;DHT22;6196;48.398;11.736;2023-07-13T05:21:02;19.00;99.90
12268;DHT22;6196;48.398;11.736;2023-07-13T05:23:32;18.90;99.90
12268;DHT22;6196;48.398;11.736;2023-07-13T05:26:00;18.90;99.90
12268;DHT22;6196;48.398;11.736;2023-07-13T05:28:28;19.00;99.90
12268;DHT22;6196;48.398;11.736;2023-07-13T05:30:56;19.10;99.90
12268;DHT22;6196;48.398;11.736;2023-07-13T05:33:24;19.10;99.90
12268;DHT22;6196;48.398;11.736;2023-07-13T05:35:52;19.10;99.90
12268;DHT22;6196;48.398;11.736;2023-07-13T05:38:19;19.20;99.90
12268;DHT22;6196;48.398;11.736;2023-07-13T05:40:46;19.10;99.90
12268;DHT22;6196;48.398;11.736;2023-07-13T05:43:13;19.10;99.90
12268;DHT22;6196;48.398;11.736;2023-07-13T05:45:41;19.20;99.90
12268;DHT22;6196;48.398;11.736;2023-07-13T05:48:08;19.30;99.90
12268;DHT22;6196;48.398;11.736;2023-07-13T05:50:35;19.20;99.90
12268;DHT22;6196;48.398;11.736;2023-07-13T05:53:02;19.20;99.90
12268;DHT22;6196;48.398;11.736;2023-07-13T05:55:30;19.20;99.90
12268;DHT22;6196;48.398;11.736;2023-07-13T05:57:57;19.10;99.90
12268;DHT22;6196;48.398;11.736;2023-07-13T06:00:25;19.10;99.90
12268;DHT22;6196;48.398;11.736;2023-07-13T06:02:52;19.10;99.90
12268;DHT22;6196;48.398;11.736;2023-07-13T06:05:20;19.30;99.90
12268;DHT22;6196;48.398;11.736;2023-07-13T06:07:47;19.50;99.90
12268;DHT22;6196;48.398;11.736;2023-07-13T06:10:13;19.80;99.90
12268;DHT22;6196;48.398;11.736;2023-07-13T06:12:40;20.10;99.90
12268;DHT22;6196;48.398;11.736;2023-07-13T06:15:08;20.50;99.90
12268;DHT22;6196;48.398;11.736;2023-07-13T06:17:35;20.80;99.90
12268;DHT22;6196;48.398;11.736;2023-07-13T06:20:02;20.70;99.90
12268;DHT22;6196;48.398;11.736;2023-07-13T06:22:29;20.90;99.90
12268;DHT22;6196;48.398;11.736;2023-07-13T06:24:56;21.40;99.90
12268;DHT22;6196;48.398;11.736;2023-07-13T06:27:23;21.80;99.90
12268;DHT22;6196;48.398;11.736;2023-07-13T06:29:50;22.00;99.90
12268;DHT22;6196;48.398;11.736;2023-07-13T06:32:17;22.00;99.90
12268;DHT22;6196;48.398;11.736;2023-07-13T06:34:44;21.80;99.90
12268;DHT22;6196;48.398;11.736;2023-07-13T06:37:11;21.70;99.90
12268;DHT22;6196;48.398;11.736;2023-07-13T06:39:38;21.90;99.90
12268;DHT22;6196;48.398;11.736;2023-07-13T06:42:06;21.90;99.90
12268;DHT22;6196;48.398;11.736;2023-07-13T06:44:33;21.90;99.90
12268;DHT22;6196;48.398;11.736;2023-07-13T06:47:00;22.20;99.90
12268;DHT22;6196;48.398;11.736;2023-07-13T06:49:27;22.40;99.90
12268;DHT22;6196;48.398;11.736;2023-07-13T06:51:54;22.70;99.90
12268;DHT22;6196;48.398;11.736;2023-07-13T06:54:21;22.50;99.90
12268;DHT22;6196;48.398;11.736;2023-07-13T06:56:48;22.30;99.90
12268;DHT22;6196;48.398;11.736;2023-07-13T06:59:15;22.30;99.90
12268;DHT22;6196;48.398;11.736;2023-07-13T07:01:42;22.20;99.90
12268;DHT22;6196;48.398;11.736;2023-07-13T07:04:08;22.20;99.90
12268;DHT22;6196;48.398;11.736;2023-07-13T07:06:35;22.30;99.90
12268;DHT22;6196;48.398;11.736;2023-07-13T07:09:02;22.10;99.90
12268;DHT22;6196;48.398;11.736;2023-07-13T07:11:29;22.40;99.90
12268;DHT22;6196;48.398;11.736;2023-07-13T07:13:56;22.50;99.90
12268;DHT22;6196;48.398;11.736;2023-07-13T07:16:24;22.70;99.90
12268;DHT22;6196;48.398;11.736;2023-07-13T07:18:51;22.50;99.90
12268;DHT22;6196;48.398;11.736;2023-07-13T07:21:18;22.40;99.90
12268;DHT22;6196;48.398;11.736;2023-07-13T07:23:46;22.40;99.90
12268;DHT22;6196;48.398;11.736;2023-07-13T07:26:12;22.30;99.90
12268;DHT22;6196;48.398;11.736;2023-07-13T07:28:39;22.30;99.90
12268;DHT22;6196;48.398;11.736;2023-07-13T07:31:11;22.20;99.90
12268;DHT22;6196;48.398;11.736;2023-07-13T07:33:41;22.10;99.90
12268;DHT22;6196;48.398;11.736;2023-07-13T07:36:08;22.00;99.90
12268;DHT22;6196;48.398;11.736;2023-07-13T07:38:38;21.80;99.90
12268;DHT22;6196;48.398;11.736;2023-07-13T07:41:05;21.80;99.90
12268;DHT22;6196;48.398;11.736;2023-07-13T07:43:35;21.90;99.90
12268;DHT22;6196;48.398;11.736;2023-07-13T07:46:03;21.90;99.90
12268;DHT22;6196;48.398;11.736;2023-07-13T07:48:30;22.10;99.90
12268;DHT22;6196;48.398;11.736;2023-07-13T07:50:58;22.00;99.90
12268;DHT22;6196;48.398;11.736;2023-07-13T07:53:25;21.90;99.90
12268;DHT22;6196;48.398;11.736;2023-07-13T07:55:51;21.90;99.90
12268;DHT22;6196;48.398;11.736;2023-07-13T07:58:21;21.90;99.90
12268;DHT22;6196;48.398;11.736;2023-07-13T08:00:51;22.00;99.90
12268;DHT22;6196;48.398;11.736;2023-07-13T08:03:21;22.00;99.90
12268;DHT22;6196;48.398;11.736;2023-07-13T08:05:53;21.90;99.90
12268;DHT22;6196;48.398;11.736;2023-07-13T08:08:24;22.20;99.90
12268;DHT22;6196;48.398;11.736;2023-07-13T08:10:52;22.30;99.90
12268;DHT22;6196;48.398;11.736;2023-07-13T08:13:25;22.40;99.90
12268;DHT22;6196;48.398;11.736;2023-07-13T08:15:52;22.30;99.90
12268;DHT22;6196;48.398;11.736;2023-07-13T08:18:19;22.20;99.90
12268;DHT22;6196;48.398;11.736;2023-07-13T08:20:46;22.00;99.90
12268;DHT22;6196;48.398;11.736;2023-07-13T08:23:13;22.30;99.90
12268;DHT22;6196;48.398;11.736;2023-07-13T08:25:40;22.00;99.90
12268;DHT22;6196;48.398;11.736;2023-07-13T08:28:06;21.90;99.90
12268;DHT22;6196;48.398;11.736;2023-07-13T08:30:33;21.70;99.90
12268;DHT22;6196;48.398;11.736;2023-07-13T08:33:00;21.60;99.90
12268;DHT22;6196;48.398;11.736;2023-07-13T08:35:28;21.30;99.90
12268;DHT22;6196;48.398;11.736;2023-07-13T08:37:55;21.30;99.90
12268;DHT22;6196;48.398;11.736;2023-07-13T08:40:25;21.30;99.90
12268;DHT22;6196;48.398;11.736;2023-07-13T08:42:55;21.30;99.90
12268;DHT22;6196;48.398;11.736;2023-07-13T08:46:37;21.10;99.90
12268;DHT22;6196;48.398;11.736;2023-07-13T08:49:03;21.00;99.90
12268;DHT22;6196;48.398;11.736;2023-07-13T08:51:46;21.10;99.90
12268;DHT22;6196;48.398;11.736;2023-07-13T08:56:56;21.10;99.90
12268;DHT22;6196;48.398;11.736;2023-07-13T08:59:27;21.00;99.90
12268;DHT22;6196;48.398;11.736;2023-07-13T09:04:54;21.00;99.90
12268;DHT22;6196;48.398;11.736;2023-07-13T09:07:58;21.10;99.90
12268;DHT22;6196;48.398;11.736;2023-07-13T09:10:37;21.20;99.90
12268;DHT22;6196;48.398;11.736;2023-07-13T09:13:35;21.20;99.90
12268;DHT22;6196;48.398;11.736;2023-07-13T09:16:05;21.40;99.90
12268;DHT22;6196;48.398;11.736;2023-07-13T09:21:13;21.70;99.90
12268;DHT22;6196;48.398;11.736;2023-07-13T09:23:43;21.80;99.90
12268;DHT22;6196;48.398;11.736;2023-07-13T09:26:20;21.90;99.90
12268;DHT22;6196;48.398;11.736;2023-07-13T09:28:57;21.60;99.90
12268;DHT22;6196;48.398;11.736;2023-07-13T09:31:34;21.80;99.90
12268;DHT22;6196;48.398;11.736;2023-07-13T09:34:11;21.80;99.90
12268;DHT22;6196;48.398;11.736;2023-07-13T09:36:39;21.80;99.90
12268;DHT22;6196;48.398;11.736;2023-07-13T09:39:10;22.10;99.90
12268;DHT22;6196;48.398;11.736;2023-07-13T09:42:14;22.60;99.90
12268;DHT22;6196;48.398;11.736;2023-07-13T09:44:53;23.30;99.90
12268;DHT22;6196;48.398;11.736;2023-07-13T09:47:31;23.00;99.90
12268;DHT22;6196;48.398;11.736;2023-07-13T09:50:06;23.00;99.90
12268;DHT22;6196;48.398;11.736;2023-07-13T09:52:46;23.70;99.90
12268;DHT22;6196;48.398;11.736;2023-07-13T09:57:57;24.00;99.90
12268;DHT22;6196;48.398;11.736;2023-07-13T10:00:29;24.00;99.90
12268;DHT22;6196;48.398;11.736;2023-07-13T10:03:18;24.00;99.90
12268;DHT22;6196;48.398;11.736;2023-07-13T10:05:49;24.10;99.90
12268;DHT22;6196;48.398;11.736;2023-07-13T10:08:26;23.70;99.90
12268;DHT22;6196;48.398;11.736;2023-07-13T10:11:11;24.00;99.90
12268;DHT22;6196;48.398;11.736;2023-07-13T10:13:54;24.40;99.90
12268;DHT22;6196;48.398;11.736;2023-07-13T10:16:25;24.70;99.90
12268;DHT22;6196;48.398;11.736;2023-07-13T10:18:57;25.00;99.90
12268;DHT22;6196;48.398;11.736;2023-07-13T10:21:33;25.60;99.90
12268;DHT22;6196;48.398;11.736;2023-07-13T10:24:12;25.80;99.90
12268;DHT22;6196;48.398;11.736;2023-07-13T10:27:16;25.60;99.90
12268;DHT22;6196;48.398;11.736;2023-07-13T10:29:53;25.20;99.90
12268;DHT22;6196;48.398;11.736;2023-07-13T10:32:25;25.30;99.90
12268;DHT22;6196;48.398;11.736;2023-07-13T10:34:53;25.50;99.90
12268;DHT22;6196;48.398;11.736;2023-07-13T10:37:24;25.20;99.90
12268;DHT22;6196;48.398;11.736;2023-07-13T10:39:56;25.00;99.90
12268;DHT22;6196;48.398;11.736;2023-07-13T10:42:37;25.50;99.90
12268;DHT22;6196;48.398;11.736;2023-07-13T10:45:20;25.70;99.90
12268;DHT22;6196;48.398;11.736;2023-07-13T10:47:50;25.80;99.90
12268;DHT22;6196;48.398;11.736;2023-07-13T10:50:23;25.80;99.90
12268;DHT22;6196;48.398;11.736;2023-07-13T10:52:55;25.60;99.90
12268;DHT22;6196;48.398;11.736;2023-07-13T10:58:36;26.00;99.90
12268;DHT22;6196;48.398;11.736;2023-07-13T11:01:15;26.30;99.90
12268;DHT22;6196;48.398;11.736;2023-07-13T11:03:49;27.10;99.90
12268;DHT22;6196;48.398;11.736;2023-07-13T11:06:37;27.30;99.90
12268;DHT22;6196;48.398;11.736;2023-07-13T11:15:05;26.90;99.90
12268;DHT22;6196;48.398;11.736;2023-07-13T11:22:48;25.90;99.90
12268;DHT22;6196;48.398;11.736;2023-07-13T11:30:39;27.00;99.90
12268;DHT22;6196;48.398;11.736;2023-07-13T11:33:28;26.60;99.90
12268;DHT22;6196;48.398;11.736;2023-07-13T11:36:17;26.60;99.90
12268;DHT22;6196;48.398;11.736;2023-07-13T11:41:50;26.20;99.90
12268;DHT22;6196;48.398;11.736;2023-07-13T11:44:22;26.00;99.90
12268;DHT22;6196;48.398;11.736;2023-07-13T11:46:54;26.50;99.90
12268;DHT22;6196;48.398;11.736;2023-07-13T11:49:28;26.20;99.90
12268;DHT22;6196;48.398;11.736;2023-07-13T11:51:59;26.40;99.90
12268;DHT22;6196;48.398;11.736;2023-07-13T11:54:29;27.00;99.90
12268;DHT22;6196;48.398;11.736;2023-07-13T11:57:02;26.90;99.90
12268;DHT22;6196;48.398;11.736;2023-07-13T11:59:34;26.80;99.90
12268;DHT22;6196;48.398;11.736;2023-07-13T12:02:16;27.00;99.90
12268;DHT22;6196;48.398;11.736;2023-07-13T12:04:50;27.20;99.90
12268;DHT22;6196;48.398;11.736;2023-07-13T12:07:19;26.70;99.90
12268;DHT22;6196;48.398;11.736;2023-07-13T12:09:46;26.40;99.90
12268;DHT22;6196;48.398;11.736;2023-07-13T12:12:18;26.10;99.90
12268;DHT22;6196;48.398;11.736;2023-07-13T12:14:51;26.30;99.90
12268;DHT22;6196;48.398;11.736;2023-07-13T12:17:21;26.80;99.90
12268;DHT22;6196;48.398;11.736;2023-07-13T12:19:51;27.50;99.90
12268;DHT22;6196;48.398;11.736;2023-07-13T12:22:19;27.30;99.90
12268;DHT22;6196;48.398;11.736;2023-07-13T12:24:48;27.20;99.90
12268;DHT22;6196;48.398;11.736;2023-07-13T12:27:22;27.00;99.90
12268;DHT22;6196;48.398;11.736;2023-07-13T12:29:57;27.00;99.90
12268;DHT22;6196;48.398;11.736;2023-07-13T12:32:26;27.40;99.90
12268;DHT22;6196;48.398;11.736;2023-07-13T12:34:56;28.30;99.90
12268;DHT22;6196;48.398;11.736;2023-07-13T12:37:24;28.50;99.90
12268;DHT22;6196;48.398;11.736;2023-07-13T12:39:52;28.20;99.30
12268;DHT22;6196;48.398;11.736;2023-07-13T12:42:31;28.20;99.90
12268;DHT22;6196;48.398;11.736;2023-07-13T12:45:15;27.50;99.10
12268;DHT22;6196;48.398;11.736;2023-07-13T12:47:48;27.20;99.90
12268;DHT22;6196;48.398;11.736;2023-07-13T12:50:22;27.70;99.90
12268;DHT22;6196;48.398;11.736;2023-07-13T12:52:53;28.60;99.90
12268;DHT22;6196;48.398;11.736;2023-07-13T12:55:21;29.20;99.90
12268;DHT22;6196;48.398;11.736;2023-07-13T12:57:53;29.30;98.60
12268;DHT22;6196;48.398;11.736;2023-07-13T13:02:54;28.20;99.20
12268;DHT22;6196;48.398;11.736;2023-07-13T13:05:34;27.50;97.30
12268;DHT22;6196;48.398;11.736;2023-07-13T13:08:01;27.60;99.20
12268;DHT22;6196;48.398;11.736;2023-07-13T13:10:28;28.00;99.50
12268;DHT22;6196;48.398;11.736;2023-07-13T13:12:55;28.40;99.70
12268;DHT22;6196;48.398;11.736;2023-07-13T13:15:22;28.50;98.20
12268;DHT22;6196;48.398;11.736;2023-07-13T13:17:50;27.80;97.50
12268;DHT22;6196;48.398;11.736;2023-07-13T13:20:21;27.50;98.80
12268;DHT22;6196;48.398;11.736;2023-07-13T13:22:49;26.60;98.60
12268;DHT22;6196;48.398;11.736;2023-07-13T13:25:18;26.30;99.90
12268;DHT22;6196;48.398;11.736;2023-07-13T13:27:46;26.40;99.90
12268;DHT22;6196;48.398;11.736;2023-07-13T13:30:17;27.10;99.90
12268;DHT22;6196;48.398;11.736;2023-07-13T13:32:47;27.10;99.90
12268;DHT22;6196;48.398;11.736;2023-07-13T13:35:16;27.50;99.50
12268;DHT22;6196;48.398;11.736;2023-07-13T13:37:47;27.60;99.90
12268;DHT22;6196;48.398;11.736;2023-07-13T13:40:19;27.30;98.90
12268;DHT22;6196;48.398;11.736;2023-07-13T13:42:50;26.60;99.90
12268;DHT22;6196;48.398;11.736;2023-07-13T13:45:19;26.60;99.90
12268;DHT22;6196;48.398;11.736;2023-07-13T13:47:47;26.20;99.90
12268;DHT22;6196;48.398;11.736;2023-07-13T13:50:20;26.40;99.90
12268;DHT22;6196;48.398;11.736;2023-07-13T13:52:49;26.40;99.90
12268;DHT22;6196;48.398;11.736;2023-07-13T13:55:18;26.40;99.90
12268;DHT22;6196;48.398;11.736;2023-07-13T13:57:47;26.60;99.90
12268;DHT22;6196;48.398;11.736;2023-07-13T14:00:16;26.80;99.30
12268;DHT22;6196;48.398;11.736;2023-07-13T14:02:47;26.50;99.70
12268;DHT22;6196;48.398;11.736;2023-07-13T14:05:22;26.60;99.90
12268;DHT22;6196;48.398;11.736;2023-07-13T14:07:53;26.90;99.90
12268;DHT22;6196;48.398;11.736;2023-07-13T14:10:21;26.80;99.90
12268;DHT22;6196;48.398;11.736;2023-07-13T14:12:55;26.80;99.90
12268;DHT22;6196;48.398;11.736;2023-07-13T14:15:27;26.60;99.90
12268;DHT22;6196;48.398;11.736;2023-07-13T14:17:57;26.70;99.90
12268;DHT22;6196;48.398;11.736;2023-07-13T14:20:25;26.80;99.90
12268;DHT22;6196;48.398;11.736;2023-07-13T14:22:53;26.80;99.90
12268;DHT22;6196;48.398;11.736;2023-07-13T14:25:21;26.70;99.90
12268;DHT22;6196;48.398;11.736;2023-07-13T14:27:53;27.00;99.90
12268;DHT22;6196;48.398;11.736;2023-07-13T14:30:25;27.40;99.90
12268;DHT22;6196;48.398;11.736;2023-07-13T14:32:52;27.60;99.20
12268;DHT22;6196;48.398;11.736;2023-07-13T14:35:21;27.80;98.90
12268;DHT22;6196;48.398;11.736;2023-07-13T14:37:50;28.00;99.90
12268;DHT22;6196;48.398;11.736;2023-07-13T14:40:24;27.90;97.50
12268;DHT22;6196;48.398;11.736;2023-07-13T14:42:56;27.90;97.90
12268;DHT22;6196;48.398;11.736;2023-07-13T14:45:24;28.00;97.30
12268;DHT22;6196;48.398;11.736;2023-07-13T14:47:51;27.40;98.00
12268;DHT22;6196;48.398;11.736;2023-07-13T14:50:30;27.20;97.70
12268;DHT22;6196;48.398;11.736;2023-07-13T14:52:58;27.00;98.30
12268;DHT22;6196;48.398;11.736;2023-07-13T14:55:25;27.20;99.20
12268;DHT22;6196;48.398;11.736;2023-07-13T14:57:53;27.70;99.50
12268;DHT22;6196;48.398;11.736;2023-07-13T15:00:21;27.80;97.70
12268;DHT22;6196;48.398;11.736;2023-07-13T15:02:53;27.50;97.40
12268;DHT22;6196;48.398;11.736;2023-07-13T15:05:24;27.20;98.80
12268;DHT22;6196;48.398;11.736;2023-07-13T15:07:53;27.60;99.90
12268;DHT22;6196;48.398;11.736;2023-07-13T15:10:25;28.30;99.70
12268;DHT22;6196;48.398;11.736;2023-07-13T15:13:00;28.10;97.60
12268;DHT22;6196;48.398;11.736;2023-07-13T15:15:31;28.30;99.10
12268;DHT22;6196;48.398;11.736;2023-07-13T15:18:00;28.50;97.60
12268;DHT22;6196;48.398;11.736;2023-07-13T15:20:30;28.20;97.20
12268;DHT22;6196;48.398;11.736;2023-07-13T15:23:00;28.20;97.10
12268;DHT22;6196;48.398;11.736;2023-07-13T15:25:29;28.00;97.60
12268;DHT22;6196;48.398;11.736;2023-07-13T15:27:58;28.10;97.60
12268;DHT22;6196;48.398;11.736;2023-07-13T15:30:27;28.10;97.30
12268;DHT22;6196;48.398;11.736;2023-07-13T15:32:57;28.60;96.40
12268;DHT22;6196;48.398;11.736;2023-07-13T15:35:29;29.10;97.00
12268;DHT22;6196;48.398;11.736;2023-07-13T15:37:56;28.90;95.50
12268;DHT22;6196;48.398;11.736;2023-07-13T15:40:23;28.70;96.60
12268;DHT22;6196;48.398;11.736;2023-07-13T15:42:52;27.60;95.30
12268;DHT22;6196;48.398;11.736;2023-07-13T15:45:21;27.20;96.70
12268;DHT22;6196;48.398;11.736;2023-07-13T15:47:51;27.00;96.60
12268;DHT22;6196;48.398;11.736;2023-07-13T15:50:23;27.00;97.60
12268;DHT22;6196;48.398;11.736;2023-07-13T15:52:55;27.10;99.60
12268;DHT22;6196;48.398;11.736;2023-07-13T15:55:25;27.10;99.70
12268;DHT22;6196;48.398;11.736;2023-07-13T15:57:52;27.60;98.30
12268;DHT22;6196;48.398;11.736;2023-07-13T16:00:23;27.80;97.50
12268;DHT22;6196;48.398;11.736;2023-07-13T16:02:51;28.00;95.70
12268;DHT22;6196;48.398;11.736;2023-07-13T16:05:20;28.10;96.70
12268;DHT22;6196;48.398;11.736;2023-07-13T16:07:52;28.00;95.40
12268;DHT22;6196;48.398;11.736;2023-07-13T16:10:24;28.40;96.70
12268;DHT22;6196;48.398;11.736;2023-07-13T16:12:57;28.60;95.50
12268;DHT22;6196;48.398;11.736;2023-07-13T16:15:24;28.60;96.20
12268;DHT22;6196;48.398;11.736;2023-07-13T16:17:51;28.60;93.70
12268;DHT22;6196;48.398;11.736;2023-07-13T16:20:18;27.70;94.00
12268;DHT22;6196;48.398;11.736;2023-07-13T16:22:50;27.50;94.70
12268;DHT22;6196;48.398;11.736;2023-07-13T16:25:20;27.50;93.10